createdAt,value
2022-10-21T00:00:51.483Z,5.87
2022-10-21T00:03:18.942Z,5.87
2022-10-21T00:05:46.382Z,5.82
2022-10-21T00:08:13.588Z,5.77
2022-10-21T00:10:40.289Z,5.70
2022-10-21T00:13:06.881Z,5.73
2022-10-21T00:15:33.436Z,5.53
2022-10-21T00:18:00.017Z,5.51
2022-10-21T00:20:26.645Z,5.59
2022-10-21T00:22:53.243Z,5.59
2022-10-21T00:25:19.818Z,5.66
2022-10-21T00:27:46.536Z,5.50
2022-10-21T00:30:13.152Z,5.48
2022-10-21T00:32:40.040Z,5.63
2022-10-21T00:35:07.183Z,5.72
2022-10-21T00:37:33.916Z,5.95
2022-10-21T00:40:00.566Z,5.98
2022-10-21T00:42:43.730Z,6.18
2022-10-21T00:45:20.387Z,6.19
2022-10-21T00:47:51.442Z,5.61
2022-10-21T00:50:33.264Z,5.71
2022-10-21T00:53:02.237Z,5.55
2022-10-21T00:55:34.113Z,5.29
2022-10-21T00:58:02.878Z,5.18
2022-10-21T01:00:29.944Z,5.66
2022-10-21T01:02:56.571Z,5.49
2022-10-21T01:05:23.519Z,5.36
2022-10-21T01:07:51.173Z,5.07
2022-10-21T01:10:18.689Z,4.95
2022-10-21T01:12:58.882Z,4.93
2022-10-21T01:15:41.791Z,4.98
2022-10-21T01:18:17.415Z,5.24
2022-10-21T01:21:05.320Z,5.11
2022-10-21T01:24:04.006Z,4.95
2022-10-21T01:26:36.502Z,4.79
2022-10-21T01:29:21.961Z,4.76
2022-10-21T01:32:00.669Z,4.73
2022-10-21T01:34:38.118Z,4.78
2022-10-21T01:37:31.568Z,4.96
2022-10-21T01:40:08.875Z,4.81
2022-10-21T01:42:43.049Z,4.81
2022-10-21T01:45:29.227Z,4.69
2022-10-21T01:48:05.940Z,4.43
2022-10-21T01:50:38.878Z,4.49
2022-10-21T01:53:10.028Z,4.48
2022-10-21T01:55:38.381Z,4.55
2022-10-21T01:58:25.406Z,4.42
2022-10-21T02:00:55.429Z,4.30
2022-10-21T02:03:26.979Z,4.42
2022-10-21T02:05:53.998Z,4.62
2022-10-21T02:08:21.158Z,4.62
2022-10-21T02:10:50.755Z,4.59
2022-10-21T02:13:29.799Z,4.71
2022-10-21T02:16:01.467Z,4.78
2022-10-21T02:18:28.124Z,4.61
2022-10-21T02:20:59.647Z,4.38
2022-10-21T02:23:51.529Z,4.52
2022-10-21T02:26:19.195Z,4.41
2022-10-21T02:28:46.869Z,4.24
2022-10-21T02:31:30.132Z,4.07
2022-10-21T02:34:21.518Z,4.21
2022-10-21T02:37:13.794Z,4.57
2022-10-21T02:39:48.169Z,4.20
2022-10-21T02:42:20.424Z,4.14
2022-10-21T02:44:47.084Z,4.08
2022-10-21T02:47:16.037Z,4.14
2022-10-21T02:49:47.238Z,4.01
2022-10-21T02:52:13.843Z,4.03
2022-10-21T02:54:40.422Z,4.45
2022-10-21T02:57:07.022Z,4.37
2022-10-21T02:59:33.701Z,4.22
2022-10-21T03:02:00.271Z,4.46
2022-10-21T03:04:26.873Z,4.63
2022-10-21T03:06:53.539Z,4.07
2022-10-21T03:09:20.236Z,3.86
2022-10-21T03:11:46.887Z,3.83
2022-10-21T03:14:13.574Z,3.99
2022-10-21T03:16:40.150Z,3.99
2022-10-21T03:19:06.754Z,3.71
2022-10-21T03:21:33.436Z,3.83
2022-10-21T03:24:00.038Z,3.76
2022-10-21T03:26:26.604Z,3.89
2022-10-21T03:28:53.163Z,4.08
2022-10-21T03:31:19.747Z,3.87
2022-10-21T03:33:46.359Z,3.96
2022-10-21T03:36:12.988Z,4.00
2022-10-21T03:38:39.713Z,3.87
2022-10-21T03:41:06.314Z,3.57
2022-10-21T03:43:32.881Z,3.70
2022-10-21T03:45:59.449Z,4.06
2022-10-21T03:48:26.169Z,3.72
2022-10-21T03:50:52.740Z,3.82
2022-10-21T03:53:38.139Z,3.69
2022-10-21T03:56:06.253Z,3.65
2022-10-21T03:58:32.819Z,3.78
2022-10-21T04:00:59.388Z,3.87
2022-10-21T04:03:26.001Z,4.15
2022-10-21T04:05:52.570Z,3.90
2022-10-21T04:08:19.205Z,3.73
2022-10-21T04:10:45.874Z,3.97
2022-10-21T04:13:12.757Z,3.76
2022-10-21T04:15:39.814Z,3.60
2022-10-21T04:18:07.579Z,4.00
2022-10-21T04:20:34.230Z,3.59
2022-10-21T04:23:00.978Z,3.82
2022-10-21T04:25:27.543Z,3.69
2022-10-21T04:27:54.099Z,3.50
2022-10-21T04:30:20.675Z,3.35
2022-10-21T04:32:47.278Z,3.53
2022-10-21T04:35:13.876Z,3.39
2022-10-21T04:37:40.464Z,3.28
2022-10-21T04:40:08.524Z,3.43
2022-10-21T04:42:35.352Z,3.33
2022-10-21T04:45:02.195Z,3.44
2022-10-21T04:47:28.815Z,3.38
2022-10-21T04:49:55.386Z,3.39
2022-10-21T04:52:21.965Z,3.28
2022-10-21T04:54:48.560Z,3.24
2022-10-21T04:57:15.147Z,3.38
2022-10-21T04:59:41.751Z,3.46
2022-10-21T05:02:08.394Z,3.43
2022-10-21T05:04:34.958Z,3.32
2022-10-21T05:07:01.535Z,3.27
2022-10-21T05:09:28.123Z,3.31
2022-10-21T05:11:54.745Z,3.10
2022-10-21T05:14:22.721Z,3.28
2022-10-21T05:16:49.821Z,3.26
2022-10-21T05:19:16.438Z,3.19
2022-10-21T05:21:43.089Z,3.38
2022-10-21T05:24:09.692Z,3.56
2022-10-21T05:26:36.267Z,3.23
2022-10-21T05:29:02.941Z,3.25
2022-10-21T05:31:29.572Z,3.35
2022-10-21T05:33:56.808Z,3.08
2022-10-21T05:36:24.194Z,3.19
2022-10-21T05:38:51.638Z,3.18
2022-10-21T05:41:18.404Z,3.07
2022-10-21T05:43:44.960Z,3.24
2022-10-21T05:46:11.577Z,2.96
2022-10-21T05:48:38.383Z,3.04
2022-10-21T05:51:05.643Z,3.26
2022-10-21T05:53:32.206Z,3.34
2022-10-21T05:56:04.684Z,3.38
2022-10-21T05:58:32.755Z,2.98
2022-10-21T06:00:59.973Z,2.65
2022-10-21T06:03:28.885Z,2.57
2022-10-21T06:05:57.993Z,2.35
2022-10-21T06:08:25.079Z,2.90
2022-10-21T06:11:02.907Z,2.76
2022-10-21T06:13:29.659Z,2.63
2022-10-21T06:15:56.725Z,2.66
2022-10-21T06:18:23.349Z,2.66
2022-10-21T06:20:49.952Z,2.77
2022-10-21T06:23:16.595Z,2.83
2022-10-21T06:25:44.371Z,2.81
2022-10-21T06:28:11.007Z,2.84
2022-10-21T06:30:37.585Z,2.88
2022-10-21T06:33:04.183Z,3.00
2022-10-21T06:35:30.833Z,3.06
2022-10-21T06:37:57.430Z,3.04
2022-10-21T06:40:24.019Z,2.94
2022-10-21T06:42:50.664Z,3.02
2022-10-21T06:45:17.418Z,3.15
2022-10-21T06:47:43.980Z,3.19
2022-10-21T06:50:11.742Z,3.30
2022-10-21T06:52:38.311Z,3.41
2022-10-21T06:55:05.483Z,3.43
2022-10-21T06:57:32.075Z,3.50
2022-10-21T06:59:58.634Z,3.31
2022-10-21T07:02:25.252Z,3.39
2022-10-21T07:04:52.208Z,3.35
2022-10-21T07:07:19.403Z,3.40
2022-10-21T07:09:46.042Z,3.61
2022-10-21T07:12:12.838Z,3.51
2022-10-21T07:14:39.425Z,3.76
2022-10-21T07:17:06.082Z,3.69
2022-10-21T07:19:33.178Z,4.01
2022-10-21T07:21:59.831Z,4.03
2022-10-21T07:24:26.472Z,4.13
2022-10-21T07:26:53.121Z,4.17
2022-10-21T07:29:20.428Z,4.43
2022-10-21T07:31:47.030Z,4.81
2022-10-21T07:34:13.598Z,5.16
2022-10-21T07:36:43.554Z,5.32
2022-10-21T07:39:13.836Z,5.07
2022-10-21T07:41:44.462Z,5.62
2022-10-21T07:44:11.621Z,5.32
2022-10-21T07:46:39.973Z,5.34
2022-10-21T07:49:07.566Z,5.47
2022-10-21T07:51:34.282Z,5.76
2022-10-21T07:54:01.459Z,6.56
2022-10-21T07:56:33.948Z,6.68
2022-10-21T07:59:01.269Z,6.89
2022-10-21T08:01:28.772Z,6.86
2022-10-21T08:03:55.786Z,6.82
2022-10-21T08:06:23.911Z,7.18
2022-10-21T08:08:50.649Z,7.37
2022-10-21T08:11:25.638Z,7.27
2022-10-21T08:13:53.255Z,7.05
2022-10-21T08:16:19.965Z,6.92
2022-10-21T08:18:47.167Z,7.22
2022-10-21T08:21:13.854Z,7.51
2022-10-21T08:23:40.704Z,7.73
2022-10-21T08:26:11.774Z,7.52
2022-10-21T08:28:38.604Z,7.47
2022-10-21T08:31:05.764Z,7.62
2022-10-21T08:33:32.491Z,7.94
2022-10-21T08:35:59.084Z,7.78
2022-10-21T08:38:25.718Z,7.67
2022-10-21T08:40:54.962Z,7.93
2022-10-21T08:43:29.663Z,8.19
2022-10-21T08:46:13.906Z,8.19
2022-10-21T08:48:54.245Z,8.53
2022-10-21T08:51:44.940Z,8.82
2022-10-21T08:54:24.442Z,9.10
2022-10-21T08:56:56.613Z,8.99
2022-10-21T08:59:25.405Z,9.18
2022-10-21T09:02:05.459Z,9.34
2022-10-21T09:04:53.237Z,9.29
2022-10-21T09:07:45.953Z,9.05
2022-10-21T09:10:20.337Z,9.17
2022-10-21T09:13:10.160Z,9.31
2022-10-21T09:16:04.927Z,9.68
2022-10-21T09:18:47.120Z,9.44
2022-10-21T09:21:50.865Z,9.51
2022-10-21T09:24:40.586Z,9.69
2022-10-21T09:27:10.225Z,9.59
2022-10-21T09:29:38.195Z,9.89
2022-10-21T09:32:04.775Z,9.88
2022-10-21T09:34:55.250Z,10.13
2022-10-21T09:37:43.662Z,10.02
2022-10-21T09:40:18.639Z,10.15
2022-10-21T09:42:48.162Z,10.23
2022-10-21T09:45:39.331Z,10.39
2022-10-21T09:48:17.942Z,10.49
2022-10-21T09:50:52.319Z,10.42
2022-10-21T09:53:45.920Z,10.21
2022-10-21T09:56:31.286Z,10.30
2022-10-21T09:59:15.833Z,10.49
2022-10-21T10:01:44.394Z,10.61
2022-10-21T10:04:30.552Z,10.61
2022-10-21T10:07:00.063Z,10.52
2022-10-21T10:09:30.461Z,10.70
2022-10-21T10:12:06.955Z,10.51
2022-10-21T10:14:36.783Z,10.74
2022-10-21T10:17:35.107Z,10.85
2022-10-21T10:20:04.468Z,11.05
2022-10-21T10:22:42.558Z,11.03
2022-10-21T10:25:12.180Z,11.03
2022-10-21T10:28:06.715Z,10.96
2022-10-21T10:30:45.189Z,11.09
2022-10-21T10:33:34.316Z,10.96
2022-10-21T10:36:05.523Z,11.24
2022-10-21T10:38:41.412Z,11.45
2022-10-21T10:41:18.931Z,11.53
2022-10-21T10:43:52.445Z,11.76
2022-10-21T10:46:27.449Z,11.83
2022-10-21T10:48:56.371Z,12.06
2022-10-21T10:51:34.060Z,12.02
2022-10-21T10:54:06.801Z,12.06
2022-10-21T10:56:42.604Z,11.99
2022-10-21T10:59:24.737Z,12.03
2022-10-21T11:02:04.417Z,12.13
2022-10-21T11:04:35.131Z,12.22
2022-10-21T11:07:07.796Z,12.19
2022-10-21T11:09:34.674Z,11.83
2022-10-21T11:12:10.115Z,11.84
2022-10-21T11:14:36.699Z,11.95
2022-10-21T11:17:06.242Z,11.85
2022-10-21T11:19:52.863Z,11.83
2022-10-21T11:22:46.908Z,11.61
2022-10-21T11:25:23.271Z,11.61
2022-10-21T11:28:23.816Z,11.58
2022-10-21T11:31:13.453Z,11.69
2022-10-21T11:33:55.171Z,11.89
2022-10-21T11:36:37.748Z,11.76
2022-10-21T11:39:34.509Z,11.65
2022-10-21T11:42:13.678Z,11.58
2022-10-21T11:45:03.719Z,11.46
2022-10-21T11:47:51.790Z,11.70
2022-10-21T11:50:41.236Z,11.58
2022-10-21T11:53:35.583Z,11.60
2022-10-21T11:56:17.415Z,11.61
2022-10-21T11:59:01.100Z,11.71
2022-10-21T12:01:54.595Z,11.47
2022-10-21T12:04:32.529Z,11.69
2022-10-21T12:07:17.372Z,11.63
2022-10-21T12:09:43.881Z,11.64
2022-10-21T12:12:17.497Z,11.72
2022-10-21T12:14:50.165Z,11.77
2022-10-21T12:17:20.431Z,11.80
2022-10-21T12:19:54.226Z,11.81
2022-10-21T12:22:22.439Z,11.84
2022-10-21T12:25:09.707Z,11.99
2022-10-21T12:27:47.504Z,11.93
2022-10-21T12:30:26.524Z,11.96
2022-10-21T12:33:15.011Z,11.89
2022-10-21T12:35:53.605Z,11.75
2022-10-21T12:38:21.938Z,11.82
2022-10-21T12:40:49.777Z,11.65
2022-10-21T12:43:22.724Z,11.62
2022-10-21T12:46:10.324Z,11.90
2022-10-21T12:48:40.648Z,11.90
2022-10-21T12:51:28.520Z,12.00
2022-10-21T12:54:03.940Z,12.01
2022-10-21T12:56:37.687Z,12.10
2022-10-21T12:59:06.740Z,11.96
2022-10-21T13:01:38.552Z,11.85
2022-10-21T13:04:15.021Z,11.98
2022-10-21T13:06:56.067Z,11.86
2022-10-21T13:09:38.200Z,11.96
2022-10-21T13:12:10.597Z,11.65
2022-10-21T13:14:40.236Z,11.96
2022-10-21T13:17:21.865Z,11.75
2022-10-21T13:20:06.902Z,11.67
2022-10-21T13:22:33.427Z,11.49
2022-10-21T13:25:37.377Z,11.57
2022-10-21T13:28:15.888Z,11.66
2022-10-21T13:30:48.548Z,11.78
2022-10-21T13:33:22.418Z,11.73
2022-10-21T13:35:54.559Z,11.82
2022-10-21T13:38:25.005Z,11.85
2022-10-21T13:40:55.465Z,11.59
2022-10-21T13:43:25.902Z,11.83
2022-10-21T13:46:03.691Z,11.79
2022-10-21T13:48:31.032Z,11.90
2022-10-21T13:51:07.119Z,12.11
2022-10-21T13:53:33.798Z,12.16
2022-10-21T13:56:07.043Z,12.16
2022-10-21T13:58:37.613Z,12.00
2022-10-21T14:01:25.518Z,12.22
2022-10-21T14:04:10.356Z,11.92
2022-10-21T14:06:42.004Z,12.04
2022-10-21T14:09:19.354Z,12.35
2022-10-21T14:11:48.786Z,12.22
2022-10-21T14:14:19.576Z,11.89
2022-10-21T14:16:55.867Z,11.81
2022-10-21T14:19:34.827Z,11.92
2022-10-21T14:22:02.700Z,11.86
2022-10-21T14:24:48.048Z,12.06
2022-10-21T14:27:19.031Z,12.12
2022-10-21T14:29:46.271Z,12.08
2022-10-21T14:32:18.066Z,12.21
2022-10-21T14:35:06.950Z,12.16
2022-10-21T14:37:49.428Z,12.13
2022-10-21T14:40:35.777Z,12.11
2022-10-21T14:43:06.978Z,12.06
2022-10-21T14:45:36.642Z,12.06
2022-10-21T14:48:09.310Z,11.88
2022-10-21T14:50:38.776Z,11.96
2022-10-21T14:53:19.039Z,12.08
2022-10-21T14:55:48.171Z,12.19
2022-10-21T15:01:12.501Z,12.09
2022-10-21T15:03:47.612Z,11.75
2022-10-21T15:06:29.529Z,11.70
2022-10-21T15:08:56.135Z,11.60
2022-10-21T15:11:25.749Z,11.92
2022-10-21T15:14:14.002Z,11.89
2022-10-21T15:16:50.828Z,11.83
2022-10-21T15:19:26.364Z,11.56
2022-10-21T15:21:56.919Z,11.64
2022-10-21T15:24:26.657Z,11.42
2022-10-21T15:26:54.151Z,11.17
2022-10-21T15:29:20.673Z,11.32
2022-10-21T15:31:47.711Z,11.38
2022-10-21T15:34:15.991Z,11.32
2022-10-21T15:39:18.979Z,11.21
2022-10-21T15:41:48.491Z,11.29
2022-10-21T15:44:25.108Z,11.04
2022-10-21T15:46:51.899Z,11.18
2022-10-21T15:49:24.877Z,11.22
2022-10-21T15:51:51.621Z,11.15
2022-10-21T15:54:19.361Z,11.15
2022-10-21T15:56:49.164Z,11.11
2022-10-21T15:59:22.003Z,10.86
2022-10-21T16:01:50.246Z,10.95
2022-10-21T16:04:17.169Z,10.84
2022-10-21T16:06:44.592Z,10.95
2022-10-21T16:09:14.707Z,10.85
2022-10-21T16:11:54.770Z,10.59
2022-10-21T16:14:29.267Z,10.49
2022-10-21T16:16:58.325Z,10.48
2022-10-21T16:19:24.945Z,10.52
2022-10-21T16:21:51.644Z,10.45
2022-10-21T16:24:18.535Z,10.60
2022-10-21T16:26:47.696Z,10.54
2022-10-21T16:29:23.333Z,10.47
2022-10-21T16:31:50.284Z,10.54
2022-10-21T16:34:16.939Z,10.48
2022-10-21T16:36:43.831Z,10.45
2022-10-21T16:39:15.131Z,10.43
2022-10-21T16:41:41.709Z,10.55
2022-10-21T16:44:08.307Z,10.48
2022-10-21T16:46:38.047Z,10.30
2022-10-21T16:49:12.888Z,10.33
2022-10-21T16:51:41.848Z,10.30
2022-10-21T16:54:08.601Z,10.12
2022-10-21T16:56:35.187Z,9.83
2022-10-21T16:59:01.782Z,9.92
2022-10-21T17:01:28.407Z,9.86
2022-10-21T17:03:55.067Z,10.15
2022-10-21T17:06:24.617Z,10.17
2022-10-21T17:08:53.126Z,10.13
2022-10-21T17:11:23.147Z,9.96
2022-10-21T17:13:49.979Z,9.92
2022-10-21T17:16:17.497Z,9.98
2022-10-21T17:18:44.278Z,9.85
2022-10-21T17:21:20.888Z,9.59
2022-10-21T17:23:51.144Z,9.55
2022-10-21T17:26:18.616Z,9.68
2022-10-21T17:28:45.790Z,9.73
2022-10-21T17:31:17.726Z,9.73
2022-10-21T17:33:45.038Z,9.77
2022-10-21T17:36:11.808Z,9.74
2022-10-21T17:38:38.617Z,9.92
2022-10-21T17:41:05.424Z,10.13
2022-10-21T17:43:32.077Z,10.12
2022-10-21T17:45:58.775Z,10.07
2022-10-21T17:48:25.501Z,9.85
2022-10-21T17:50:56.787Z,9.74
2022-10-21T17:53:23.761Z,9.69
2022-10-21T17:56:05.109Z,9.77
2022-10-21T17:58:31.706Z,9.51
2022-10-21T18:00:58.846Z,9.74
2022-10-21T18:03:27.427Z,9.51
2022-10-21T18:05:55.913Z,9.34
2022-10-21T18:08:23.322Z,9.32
2022-10-21T18:10:54.574Z,9.37
2022-10-21T18:13:26.284Z,9.33
2022-10-21T18:15:53.673Z,9.29
2022-10-21T18:18:22.089Z,9.26
2022-10-21T18:20:49.280Z,9.24
2022-10-21T18:23:15.912Z,9.24
2022-10-21T18:25:42.621Z,9.12
2022-10-21T18:28:09.490Z,9.02
2022-10-21T18:30:42.317Z,8.95
2022-10-21T18:33:09.330Z,9.08
2022-10-21T18:35:35.965Z,9.13
2022-10-21T18:38:02.538Z,9.03
2022-10-21T18:40:29.215Z,9.18
2022-10-21T18:42:55.877Z,9.07
2022-10-21T18:45:22.481Z,9.16
2022-10-21T18:47:49.067Z,9.01
2022-10-21T18:50:16.122Z,9.03
2022-10-21T18:52:42.737Z,9.02
2022-10-21T18:55:09.464Z,8.88
2022-10-21T18:57:36.032Z,8.89
2022-10-21T19:00:03.971Z,8.88
2022-10-21T19:02:30.559Z,8.92
2022-10-21T19:04:59.761Z,9.07
2022-10-21T19:07:28.918Z,8.82
2022-10-21T19:09:56.117Z,8.81
2022-10-21T19:12:23.730Z,8.65
2022-10-21T19:14:50.700Z,8.76
2022-10-21T19:17:17.845Z,8.78
2022-10-21T19:19:44.442Z,8.89
2022-10-21T19:22:11.084Z,8.84
2022-10-21T19:24:37.772Z,8.72
2022-10-21T19:27:04.363Z,8.66
2022-10-21T19:29:30.994Z,8.70
2022-10-21T19:31:57.556Z,8.66
2022-10-21T19:34:24.658Z,8.82
2022-10-21T19:36:51.234Z,8.88
2022-10-21T19:39:18.908Z,8.73
2022-10-21T19:41:46.363Z,8.77
2022-10-21T19:44:12.985Z,8.85
2022-10-21T19:46:39.557Z,8.61
2022-10-21T19:49:07.813Z,8.68
2022-10-21T19:51:34.977Z,8.56
2022-10-21T19:54:04.327Z,8.51
2022-10-21T19:56:33.398Z,8.48
2022-10-21T19:59:01.692Z,8.37
2022-10-21T20:01:28.441Z,8.43
2022-10-21T20:03:55.370Z,8.37
2022-10-21T20:06:30.620Z,8.36
2022-10-21T20:09:00.544Z,8.39
2022-10-21T20:11:27.918Z,8.32
2022-10-21T20:13:54.554Z,8.22
2022-10-21T20:16:27.346Z,8.32
2022-10-21T20:18:55.667Z,8.63
2022-10-21T20:21:23.463Z,8.53
2022-10-21T20:23:50.860Z,8.33
2022-10-21T20:26:17.758Z,8.25
2022-10-21T20:28:44.342Z,8.36
2022-10-21T20:31:13.226Z,8.28
2022-10-21T20:33:42.786Z,8.21
2022-10-21T20:36:15.993Z,8.20
2022-10-21T20:38:42.873Z,8.14
2022-10-21T20:41:13.942Z,8.08
2022-10-21T20:43:41.792Z,8.06
2022-10-21T20:46:11.083Z,7.91
2022-10-21T20:48:41.858Z,7.93
2022-10-21T20:51:11.299Z,7.93
2022-10-21T20:53:38.250Z,7.84
2022-10-21T20:56:04.943Z,7.87
2022-10-21T20:58:35.007Z,8.03
2022-10-21T21:01:32.989Z,8.06
2022-10-21T21:04:03.599Z,8.16
2022-10-21T21:06:31.212Z,8.17
2022-10-21T21:09:22.455Z,8.18
2022-10-21T21:11:45.049Z,8.18
2022-10-21T21:14:11.856Z,8.04
2022-10-21T21:16:38.535Z,7.98
2022-10-21T21:19:07.150Z,8.11
2022-10-21T21:21:36.130Z,7.92
2022-10-21T21:24:03.322Z,8.08
2022-10-21T21:26:35.867Z,8.05
2022-10-21T21:29:03.962Z,8.01
2022-10-21T21:31:30.539Z,7.93
2022-10-21T21:33:57.939Z,8.21
2022-10-21T21:36:25.658Z,8.16
2022-10-21T21:38:52.296Z,8.03
2022-10-21T21:41:18.945Z,7.91
2022-10-21T21:43:47.358Z,8.12
2022-10-21T21:46:15.267Z,8.15
2022-10-21T21:48:44.487Z,8.07
2022-10-21T21:51:13.434Z,8.27
2022-10-21T21:53:40.019Z,8.51
2022-10-21T21:56:07.268Z,8.26
2022-10-21T21:58:34.706Z,8.11
2022-10-21T22:01:15.584Z,8.20
2022-10-21T22:03:42.768Z,8.21
2022-10-21T22:06:10.204Z,8.20
2022-10-21T22:08:41.803Z,8.13
2022-10-21T22:11:17.234Z,8.17
2022-10-21T22:13:44.338Z,8.18
2022-10-21T22:16:12.345Z,8.29
2022-10-21T22:18:39.652Z,8.35
2022-10-21T22:21:08.715Z,8.38
2022-10-21T22:23:36.166Z,8.39
2022-10-21T22:26:02.787Z,8.35
2022-10-21T22:28:29.523Z,8.34
2022-10-21T22:30:59.533Z,8.33
2022-10-21T22:33:27.073Z,8.36
2022-10-21T22:35:53.651Z,8.60
2022-10-21T22:38:20.350Z,8.77
2022-10-21T22:40:47.037Z,8.54
2022-10-21T22:43:13.606Z,8.51
2022-10-21T22:45:40.204Z,8.40
2022-10-21T22:48:06.835Z,8.36
2022-10-21T22:50:33.436Z,8.58
2022-10-21T22:53:00.055Z,8.45
2022-10-21T22:55:26.701Z,8.56
2022-10-21T22:57:53.269Z,8.64
2022-10-21T23:00:19.933Z,8.46
2022-10-21T23:02:46.521Z,8.52
2022-10-21T23:05:13.475Z,8.57
2022-10-21T23:07:40.532Z,8.62
2022-10-21T23:12:39.330Z,8.52
2022-10-21T23:15:07.647Z,8.71
2022-10-21T23:17:34.501Z,8.56
2022-10-21T23:20:01.052Z,8.57
2022-10-21T23:22:27.671Z,8.52
2022-10-21T23:24:54.300Z,8.38
2022-10-21T23:27:21.151Z,8.50
2022-10-21T23:29:47.711Z,8.49
2022-10-21T23:32:14.311Z,8.43
2022-10-21T23:34:40.876Z,8.50
2022-10-21T23:37:07.546Z,8.36
2022-10-21T23:39:34.301Z,8.50
2022-10-21T23:42:00.901Z,8.59
2022-10-21T23:44:27.472Z,8.61
2022-10-21T23:46:54.090Z,8.67
2022-10-21T23:49:20.781Z,8.55
2022-10-21T23:51:47.407Z,8.17
2022-10-21T23:54:14.063Z,8.17
2022-10-21T23:56:40.692Z,8.30
2022-10-21T23:59:07.315Z,8.36
